EGNM

Leeds Bradford Airport

Leeds, United Kingdom
METAR EGNM 190320Z 26011G23KT 190V320 9999 -SHSN SCT010 01/M00 Q1002
Observed Flight Rules
Jan-19 @ 03:20 UTC (29 minutes ago) Visual Flight Rules
Wind Visibility Clouds Conditions
260° at 11 knots
 Gusting to 23 knots
10,000+ meters
  • Scattered at 1,000' AGL
  • Light Snow
Temperatures Readings
Current 1°C / 34°F
Dewpoint 0°C / 32°F
Humidity 93%
Altimeter 29.59" Hg
Pressure 1002 hPa
Elevation 208
METAR EGNM 190320Z 26011G23KT 190V320 9999 -SHSN SCT010 01/M00 Q1002
Observed Flight Rules
Jan-19 @ 03:20 UTC
(29 minutes ago)
VFR
Wind Visibility
260° at 11 knots
 Gusting to 23 knots
10,000+ meters
Clouds
  • Scattered at 1,000' AGL
Conditions
  • Light Snow
Temperature Dewpoint
1°C / 34°F 0°C / 32°F
Humidity Altimeter Pressure
93% 29.59" Hg 1002 hPa